sensor_id;sensor_type;location;lat;lon;timestamp;P1;durP1;ratioP1;P2;durP2;ratioP2
65831;SDS011;52593;42.648;23.332;2024-02-21T00:01:21;6.17;;;2.57;;
65831;SDS011;52593;42.648;23.332;2024-02-21T00:03:47;8.18;;;3.17;;
65831;SDS011;52593;42.648;23.332;2024-02-21T00:06:13;5.87;;;2.30;;
65831;SDS011;52593;42.648;23.332;2024-02-21T00:08:39;7.95;;;2.67;;
65831;SDS011;52593;42.648;23.332;2024-02-21T00:11:04;8.17;;;2.70;;
65831;SDS011;52593;42.648;23.332;2024-02-21T00:13:30;7.13;;;2.70;;
65831;SDS011;52593;42.648;23.332;2024-02-21T00:15:55;5.78;;;2.08;;
65831;SDS011;52593;42.648;23.332;2024-02-21T00:18:21;8.60;;;2.67;;
65831;SDS011;52593;42.648;23.332;2024-02-21T00:20:46;7.97;;;2.53;;
65831;SDS011;52593;42.648;23.332;2024-02-21T00:23:12;6.83;;;2.63;;
65831;SDS011;52593;42.648;23.332;2024-02-21T00:25:37;9.50;;;3.17;;
65831;SDS011;52593;42.648;23.332;2024-02-21T00:28:03;9.40;;;2.80;;
65831;SDS011;52593;42.648;23.332;2024-02-21T00:30:30;8.87;;;3.07;;
65831;SDS011;52593;42.648;23.332;2024-02-21T00:32:56;7.00;;;2.72;;
65831;SDS011;52593;42.648;23.332;2024-02-21T00:35:22;8.90;;;3.37;;
65831;SDS011;52593;42.648;23.332;2024-02-21T00:37:47;6.27;;;2.30;;
65831;SDS011;52593;42.648;23.332;2024-02-21T00:40:12;7.20;;;2.20;;
65831;SDS011;52593;42.648;23.332;2024-02-21T00:42:41;7.53;;;2.90;;
65831;SDS011;52593;42.648;23.332;2024-02-21T00:45:06;6.78;;;2.63;;
65831;SDS011;52593;42.648;23.332;2024-02-21T00:47:33;5.20;;;1.90;;
65831;SDS011;52593;42.648;23.332;2024-02-21T00:49:58;6.23;;;2.70;;
65831;SDS011;52593;42.648;23.332;2024-02-21T00:52:24;7.03;;;3.10;;
65831;SDS011;52593;42.648;23.332;2024-02-21T00:54:49;6.23;;;1.80;;
65831;SDS011;52593;42.648;23.332;2024-02-21T00:57:15;6.57;;;2.13;;
65831;SDS011;52593;42.648;23.332;2024-02-21T00:59:40;9.20;;;2.53;;
65831;SDS011;52593;42.648;23.332;2024-02-21T01:02:07;6.55;;;2.55;;
65831;SDS011;52593;42.648;23.332;2024-02-21T01:04:34;11.20;;;3.00;;
65831;SDS011;52593;42.648;23.332;2024-02-21T01:07:00;7.88;;;2.60;;
65831;SDS011;52593;42.648;23.332;2024-02-21T01:09:25;8.57;;;3.05;;
65831;SDS011;52593;42.648;23.332;2024-02-21T01:11:50;8.07;;;2.93;;
65831;SDS011;52593;42.648;23.332;2024-02-21T01:14:16;9.03;;;3.27;;
65831;SDS011;52593;42.648;23.332;2024-02-21T01:16:41;8.87;;;2.93;;
65831;SDS011;52593;42.648;23.332;2024-02-21T01:19:07;8.57;;;3.10;;
65831;SDS011;52593;42.648;23.332;2024-02-21T01:21:33;8.10;;;3.25;;
65831;SDS011;52593;42.648;23.332;2024-02-21T01:23:58;7.50;;;2.80;;
65831;SDS011;52593;42.648;23.332;2024-02-21T01:26:24;8.30;;;2.70;;
65831;SDS011;52593;42.648;23.332;2024-02-21T01:28:49;8.20;;;2.87;;
65831;SDS011;52593;42.648;23.332;2024-02-21T01:31:15;6.00;;;2.07;;
65831;SDS011;52593;42.648;23.332;2024-02-21T01:33:40;6.88;;;2.47;;
65831;SDS011;52593;42.648;23.332;2024-02-21T01:36:06;8.30;;;2.80;;
65831;SDS011;52593;42.648;23.332;2024-02-21T01:38:32;7.03;;;2.45;;
65831;SDS011;52593;42.648;23.332;2024-02-21T01:40:57;8.03;;;2.83;;
65831;SDS011;52593;42.648;23.332;2024-02-21T01:43:23;6.63;;;2.53;;
65831;SDS011;52593;42.648;23.332;2024-02-21T01:45:50;9.20;;;3.40;;
65831;SDS011;52593;42.648;23.332;2024-02-21T01:48:21;7.85;;;2.90;;
65831;SDS011;52593;42.648;23.332;2024-02-21T01:50:48;9.13;;;3.42;;
65831;SDS011;52593;42.648;23.332;2024-02-21T01:53:15;10.30;;;3.67;;
65831;SDS011;52593;42.648;23.332;2024-02-21T01:55:45;9.05;;;3.08;;
65831;SDS011;52593;42.648;23.332;2024-02-21T01:58:12;7.23;;;2.47;;
65831;SDS011;52593;42.648;23.332;2024-02-21T02:00:42;10.10;;;3.75;;
65831;SDS011;52593;42.648;23.332;2024-02-21T02:03:12;9.73;;;2.78;;
65831;SDS011;52593;42.648;23.332;2024-02-21T02:08:11;8.18;;;3.13;;
65831;SDS011;52593;42.648;23.332;2024-02-21T02:10:38;11.33;;;4.27;;
65831;SDS011;52593;42.648;23.332;2024-02-21T02:13:06;11.15;;;4.60;;
65831;SDS011;52593;42.648;23.332;2024-02-21T02:15:47;12.17;;;4.90;;
65831;SDS011;52593;42.648;23.332;2024-02-21T02:18:14;11.87;;;4.50;;
65831;SDS011;52593;42.648;23.332;2024-02-21T02:20:40;12.93;;;4.60;;
65831;SDS011;52593;42.648;23.332;2024-02-21T02:23:10;9.38;;;3.63;;
65831;SDS011;52593;42.648;23.332;2024-02-21T02:25:51;14.17;;;4.63;;
65831;SDS011;52593;42.648;23.332;2024-02-21T02:28:20;13.98;;;4.70;;
65831;SDS011;52593;42.648;23.332;2024-02-21T02:30:46;9.63;;;4.28;;
65831;SDS011;52593;42.648;23.332;2024-02-21T02:33:12;10.82;;;4.15;;
65831;SDS011;52593;42.648;23.332;2024-02-21T02:35:37;12.03;;;4.50;;
65831;SDS011;52593;42.648;23.332;2024-02-21T02:38:03;12.05;;;4.47;;
65831;SDS011;52593;42.648;23.332;2024-02-21T02:40:29;12.87;;;5.13;;
65831;SDS011;52593;42.648;23.332;2024-02-21T02:42:55;13.77;;;4.95;;
65831;SDS011;52593;42.648;23.332;2024-02-21T02:45:21;15.13;;;5.73;;
65831;SDS011;52593;42.648;23.332;2024-02-21T02:47:51;15.30;;;5.73;;
65831;SDS011;52593;42.648;23.332;2024-02-21T02:50:19;14.45;;;5.68;;
65831;SDS011;52593;42.648;23.332;2024-02-21T02:52:45;12.07;;;4.93;;
65831;SDS011;52593;42.648;23.332;2024-02-21T02:55:10;12.57;;;4.57;;
65831;SDS011;52593;42.648;23.332;2024-02-21T02:57:37;10.25;;;3.72;;
65831;SDS011;52593;42.648;23.332;2024-02-21T03:00:03;10.30;;;4.38;;
65831;SDS011;52593;42.648;23.332;2024-02-21T03:02:29;12.87;;;3.90;;
65831;SDS011;52593;42.648;23.332;2024-02-21T03:04:56;16.67;;;5.45;;
65831;SDS011;52593;42.648;23.332;2024-02-21T03:07:22;13.52;;;4.28;;
65831;SDS011;52593;42.648;23.332;2024-02-21T03:09:47;10.97;;;4.37;;
65831;SDS011;52593;42.648;23.332;2024-02-21T03:12:13;14.43;;;5.47;;
65831;SDS011;52593;42.648;23.332;2024-02-21T03:14:44;12.88;;;4.95;;
65831;SDS011;52593;42.648;23.332;2024-02-21T03:17:09;13.70;;;4.70;;
65831;SDS011;52593;42.648;23.332;2024-02-21T03:19:35;12.40;;;4.00;;
65831;SDS011;52593;42.648;23.332;2024-02-21T03:22:00;11.82;;;4.28;;
65831;SDS011;52593;42.648;23.332;2024-02-21T03:24:25;15.23;;;5.47;;
65831;SDS011;52593;42.648;23.332;2024-02-21T03:26:51;13.60;;;5.07;;
65831;SDS011;52593;42.648;23.332;2024-02-21T03:29:17;12.52;;;4.78;;
65831;SDS011;52593;42.648;23.332;2024-02-21T03:31:42;14.83;;;5.87;;
65831;SDS011;52593;42.648;23.332;2024-02-21T03:34:10;13.52;;;5.28;;
65831;SDS011;52593;42.648;23.332;2024-02-21T03:36:36;13.82;;;5.07;;
65831;SDS011;52593;42.648;23.332;2024-02-21T03:39:01;17.83;;;6.87;;
65831;SDS011;52593;42.648;23.332;2024-02-21T03:41:27;11.87;;;4.70;;
65831;SDS011;52593;42.648;23.332;2024-02-21T03:43:52;14.23;;;5.57;;
65831;SDS011;52593;42.648;23.332;2024-02-21T03:46:18;12.63;;;4.70;;
65831;SDS011;52593;42.648;23.332;2024-02-21T03:48:43;12.93;;;4.67;;
65831;SDS011;52593;42.648;23.332;2024-02-21T03:51:10;14.70;;;5.25;;
65831;SDS011;52593;42.648;23.332;2024-02-21T03:53:35;15.03;;;5.00;;
65831;SDS011;52593;42.648;23.332;2024-02-21T03:56:01;14.30;;;5.50;;
65831;SDS011;52593;42.648;23.332;2024-02-21T03:58:29;14.15;;;5.40;;
65831;SDS011;52593;42.648;23.332;2024-02-21T04:00:59;12.25;;;4.18;;
65831;SDS011;52593;42.648;23.332;2024-02-21T04:03:26;12.50;;;4.72;;
65831;SDS011;52593;42.648;23.332;2024-02-21T04:05:52;14.60;;;5.47;;
65831;SDS011;52593;42.648;23.332;2024-02-21T04:08:17;13.48;;;5.57;;
65831;SDS011;52593;42.648;23.332;2024-02-21T04:10:42;15.27;;;5.10;;
65831;SDS011;52593;42.648;23.332;2024-02-21T04:13:08;10.77;;;4.27;;
65831;SDS011;52593;42.648;23.332;2024-02-21T04:15:34;15.93;;;6.07;;
65831;SDS011;52593;42.648;23.332;2024-02-21T04:18:00;17.40;;;5.80;;
65831;SDS011;52593;42.648;23.332;2024-02-21T04:20:26;16.63;;;5.63;;
65831;SDS011;52593;42.648;23.332;2024-02-21T04:22:51;16.83;;;6.67;;
65831;SDS011;52593;42.648;23.332;2024-02-21T04:25:17;16.27;;;5.97;;
65831;SDS011;52593;42.648;23.332;2024-02-21T04:27:42;13.20;;;5.17;;
65831;SDS011;52593;42.648;23.332;2024-02-21T04:30:09;16.57;;;6.13;;
65831;SDS011;52593;42.648;23.332;2024-02-21T04:32:35;15.23;;;6.07;;
65831;SDS011;52593;42.648;23.332;2024-02-21T04:35:00;14.65;;;5.65;;
65831;SDS011;52593;42.648;23.332;2024-02-21T04:37:26;15.73;;;6.10;;
65831;SDS011;52593;42.648;23.332;2024-02-21T04:39:51;13.57;;;4.88;;
65831;SDS011;52593;42.648;23.332;2024-02-21T04:42:17;16.90;;;6.13;;
65831;SDS011;52593;42.648;23.332;2024-02-21T04:44:42;16.53;;;5.90;;
65831;SDS011;52593;42.648;23.332;2024-02-21T04:47:08;17.08;;;6.60;;
65831;SDS011;52593;42.648;23.332;2024-02-21T04:49:34;17.93;;;5.70;;
65831;SDS011;52593;42.648;23.332;2024-02-21T04:51:59;18.13;;;5.82;;
65831;SDS011;52593;42.648;23.332;2024-02-21T04:54:25;12.20;;;4.77;;
65831;SDS011;52593;42.648;23.332;2024-02-21T04:56:51;14.87;;;5.30;;
65831;SDS011;52593;42.648;23.332;2024-02-21T04:59:16;13.93;;;5.97;;
65831;SDS011;52593;42.648;23.332;2024-02-21T05:01:42;14.77;;;5.90;;
65831;SDS011;52593;42.648;23.332;2024-02-21T05:04:07;15.82;;;5.93;;
65831;SDS011;52593;42.648;23.332;2024-02-21T05:06:39;16.67;;;6.00;;
65831;SDS011;52593;42.648;23.332;2024-02-21T05:09:06;15.50;;;4.75;;
65831;SDS011;52593;42.648;23.332;2024-02-21T05:11:31;16.50;;;6.03;;
65831;SDS011;52593;42.648;23.332;2024-02-21T05:13:57;17.60;;;6.40;;
65831;SDS011;52593;42.648;23.332;2024-02-21T05:16:22;20.63;;;6.83;;
65831;SDS011;52593;42.648;23.332;2024-02-21T05:18:48;16.20;;;6.17;;
65831;SDS011;52593;42.648;23.332;2024-02-21T05:21:13;15.13;;;5.70;;
65831;SDS011;52593;42.648;23.332;2024-02-21T05:23:39;18.93;;;7.27;;
65831;SDS011;52593;42.648;23.332;2024-02-21T05:26:05;18.37;;;6.87;;
65831;SDS011;52593;42.648;23.332;2024-02-21T05:28:31;19.52;;;7.00;;
65831;SDS011;52593;42.648;23.332;2024-02-21T05:30:57;17.23;;;6.07;;
65831;SDS011;52593;42.648;23.332;2024-02-21T05:33:22;18.53;;;7.10;;
65831;SDS011;52593;42.648;23.332;2024-02-21T05:35:48;18.83;;;6.80;;
65831;SDS011;52593;42.648;23.332;2024-02-21T05:38:14;19.47;;;7.10;;
65831;SDS011;52593;42.648;23.332;2024-02-21T05:40:39;21.02;;;6.63;;
65831;SDS011;52593;42.648;23.332;2024-02-21T05:43:06;21.47;;;7.53;;
65831;SDS011;52593;42.648;23.332;2024-02-21T05:45:32;20.98;;;6.38;;
65831;SDS011;52593;42.648;23.332;2024-02-21T05:47:58;19.47;;;7.03;;
65831;SDS011;52593;42.648;23.332;2024-02-21T05:50:23;16.33;;;5.85;;
65831;SDS011;52593;42.648;23.332;2024-02-21T05:52:52;13.83;;;4.93;;
65831;SDS011;52593;42.648;23.332;2024-02-21T05:55:19;19.17;;;7.10;;
65831;SDS011;52593;42.648;23.332;2024-02-21T05:57:45;17.65;;;6.28;;
65831;SDS011;52593;42.648;23.332;2024-02-21T06:00:10;19.30;;;7.33;;
65831;SDS011;52593;42.648;23.332;2024-02-21T06:02:36;21.50;;;7.00;;
65831;SDS011;52593;42.648;23.332;2024-02-21T06:05:01;20.27;;;7.00;;
65831;SDS011;52593;42.648;23.332;2024-02-21T06:07:27;17.03;;;6.37;;
65831;SDS011;52593;42.648;23.332;2024-02-21T06:09:53;16.80;;;5.93;;
65831;SDS011;52593;42.648;23.332;2024-02-21T06:12:18;23.20;;;7.00;;
65831;SDS011;52593;42.648;23.332;2024-02-21T06:14:44;9.73;;;3.77;;
65831;SDS011;52593;42.648;23.332;2024-02-21T06:17:09;21.38;;;6.78;;
65831;SDS011;52593;42.648;23.332;2024-02-21T06:19:35;18.93;;;6.33;;
65831;SDS011;52593;42.648;23.332;2024-02-21T06:22:00;16.65;;;6.40;;
65831;SDS011;52593;42.648;23.332;2024-02-21T06:24:26;15.93;;;6.27;;
65831;SDS011;52593;42.648;23.332;2024-02-21T06:26:51;19.03;;;6.87;;
65831;SDS011;52593;42.648;23.332;2024-02-21T06:29:17;20.10;;;6.73;;
65831;SDS011;52593;42.648;23.332;2024-02-21T06:31:42;14.68;;;5.57;;
65831;SDS011;52593;42.648;23.332;2024-02-21T06:34:08;14.60;;;5.37;;
65831;SDS011;52593;42.648;23.332;2024-02-21T06:36:33;17.77;;;6.10;;
65831;SDS011;52593;42.648;23.332;2024-02-21T06:38:59;18.07;;;6.17;;
65831;SDS011;52593;42.648;23.332;2024-02-21T06:41:24;16.10;;;6.40;;
65831;SDS011;52593;42.648;23.332;2024-02-21T06:43:50;12.80;;;5.57;;
65831;SDS011;52593;42.648;23.332;2024-02-21T06:46:28;15.93;;;6.13;;
65831;SDS011;52593;42.648;23.332;2024-02-21T06:48:54;19.97;;;6.37;;
65831;SDS011;52593;42.648;23.332;2024-02-21T06:51:21;22.23;;;6.70;;
65831;SDS011;52593;42.648;23.332;2024-02-21T06:53:47;18.10;;;6.78;;
65831;SDS011;52593;42.648;23.332;2024-02-21T06:56:13;17.95;;;6.50;;
65831;SDS011;52593;42.648;23.332;2024-02-21T06:58:38;18.60;;;6.03;;
65831;SDS011;52593;42.648;23.332;2024-02-21T07:01:04;16.50;;;5.65;;
65831;SDS011;52593;42.648;23.332;2024-02-21T07:03:30;14.77;;;5.43;;
65831;SDS011;52593;42.648;23.332;2024-02-21T07:05:55;17.73;;;6.53;;
65831;SDS011;52593;42.648;23.332;2024-02-21T07:08:20;18.50;;;6.67;;
65831;SDS011;52593;42.648;23.332;2024-02-21T07:10:47;15.23;;;5.45;;
65831;SDS011;52593;42.648;23.332;2024-02-21T07:13:12;15.90;;;5.95;;
65831;SDS011;52593;42.648;23.332;2024-02-21T07:15:39;18.53;;;7.00;;
65831;SDS011;52593;42.648;23.332;2024-02-21T07:18:04;12.82;;;4.95;;
65831;SDS011;52593;42.648;23.332;2024-02-21T07:20:30;22.00;;;7.60;;
65831;SDS011;52593;42.648;23.332;2024-02-21T07:22:55;15.67;;;6.10;;
65831;SDS011;52593;42.648;23.332;2024-02-21T07:25:21;18.77;;;7.30;;
65831;SDS011;52593;42.648;23.332;2024-02-21T07:27:46;20.57;;;6.87;;
65831;SDS011;52593;42.648;23.332;2024-02-21T07:30:12;19.13;;;7.33;;
65831;SDS011;52593;42.648;23.332;2024-02-21T07:32:38;20.67;;;7.38;;
65831;SDS011;52593;42.648;23.332;2024-02-21T07:35:03;16.93;;;6.40;;
65831;SDS011;52593;42.648;23.332;2024-02-21T07:37:30;19.02;;;6.80;;
65831;SDS011;52593;42.648;23.332;2024-02-21T07:39:56;21.70;;;6.93;;
65831;SDS011;52593;42.648;23.332;2024-02-21T07:42:21;14.87;;;5.23;;
65831;SDS011;52593;42.648;23.332;2024-02-21T07:44:47;18.77;;;7.40;;
65831;SDS011;52593;42.648;23.332;2024-02-21T07:47:12;19.07;;;6.87;;
65831;SDS011;52593;42.648;23.332;2024-02-21T07:49:41;20.77;;;6.87;;
65831;SDS011;52593;42.648;23.332;2024-02-21T07:52:08;18.65;;;6.65;;
65831;SDS011;52593;42.648;23.332;2024-02-21T07:54:34;17.70;;;6.87;;
65831;SDS011;52593;42.648;23.332;2024-02-21T07:57:00;18.75;;;6.65;;
65831;SDS011;52593;42.648;23.332;2024-02-21T07:59:25;18.60;;;7.47;;
65831;SDS011;52593;42.648;23.332;2024-02-21T08:01:51;17.90;;;7.07;;
65831;SDS011;52593;42.648;23.332;2024-02-21T08:04:16;16.20;;;6.53;;
65831;SDS011;52593;42.648;23.332;2024-02-21T08:06:41;15.88;;;6.00;;
65831;SDS011;52593;42.648;23.332;2024-02-21T08:09:08;21.05;;;7.95;;
65831;SDS011;52593;42.648;23.332;2024-02-21T08:11:33;19.67;;;6.93;;
65831;SDS011;52593;42.648;23.332;2024-02-21T08:13:59;20.67;;;7.50;;
65831;SDS011;52593;42.648;23.332;2024-02-21T08:16:24;13.93;;;5.28;;
65831;SDS011;52593;42.648;23.332;2024-02-21T08:18:51;22.70;;;7.57;;
65831;SDS011;52593;42.648;23.332;2024-02-21T08:21:17;19.83;;;7.18;;
65831;SDS011;52593;42.648;23.332;2024-02-21T08:23:42;18.37;;;7.07;;
65831;SDS011;52593;42.648;23.332;2024-02-21T08:26:08;17.37;;;6.80;;
65831;SDS011;52593;42.648;23.332;2024-02-21T08:28:33;19.03;;;6.10;;
65831;SDS011;52593;42.648;23.332;2024-02-21T08:30:58;16.52;;;6.40;;
65831;SDS011;52593;42.648;23.332;2024-02-21T08:33:24;16.77;;;6.20;;
65831;SDS011;52593;42.648;23.332;2024-02-21T08:35:51;15.83;;;6.13;;
65831;SDS011;52593;42.648;23.332;2024-02-21T08:38:17;16.87;;;6.63;;
65831;SDS011;52593;42.648;23.332;2024-02-21T08:40:42;18.58;;;6.82;;
65831;SDS011;52593;42.648;23.332;2024-02-21T08:43:08;16.50;;;6.17;;
65831;SDS011;52593;42.648;23.332;2024-02-21T08:45:33;15.47;;;6.10;;
65831;SDS011;52593;42.648;23.332;2024-02-21T08:47:59;10.80;;;4.37;;
65831;SDS011;52593;42.648;23.332;2024-02-21T08:50:24;13.83;;;4.80;;
65831;SDS011;52593;42.648;23.332;2024-02-21T08:52:50;14.57;;;4.57;;
65831;SDS011;52593;42.648;23.332;2024-02-21T08:55:16;11.90;;;5.20;;
65831;SDS011;52593;42.648;23.332;2024-02-21T08:57:41;14.13;;;5.97;;
65831;SDS011;52593;42.648;23.332;2024-02-21T09:00:07;17.10;;;6.47;;
65831;SDS011;52593;42.648;23.332;2024-02-21T09:02:38;19.50;;;6.00;;
65831;SDS011;52593;42.648;23.332;2024-02-21T09:05:10;13.43;;;5.65;;
65831;SDS011;52593;42.648;23.332;2024-02-21T09:07:35;15.55;;;5.68;;
65831;SDS011;52593;42.648;23.332;2024-02-21T09:10:01;12.30;;;4.83;;
65831;SDS011;52593;42.648;23.332;2024-02-21T09:12:28;10.07;;;3.95;;
65831;SDS011;52593;42.648;23.332;2024-02-21T09:14:53;10.48;;;4.90;;
65831;SDS011;52593;42.648;23.332;2024-02-21T09:17:19;12.67;;;4.83;;
65831;SDS011;52593;42.648;23.332;2024-02-21T09:19:45;12.95;;;4.90;;
65831;SDS011;52593;42.648;23.332;2024-02-21T09:22:14;14.90;;;5.90;;
65831;SDS011;52593;42.648;23.332;2024-02-21T09:24:39;12.13;;;4.43;;
65831;SDS011;52593;42.648;23.332;2024-02-21T09:27:05;11.80;;;4.70;;
65831;SDS011;52593;42.648;23.332;2024-02-21T09:29:31;15.52;;;5.38;;
65831;SDS011;52593;42.648;23.332;2024-02-21T09:31:58;13.65;;;4.80;;
65831;SDS011;52593;42.648;23.332;2024-02-21T09:34:24;14.30;;;4.22;;
65831;SDS011;52593;42.648;23.332;2024-02-21T09:36:49;12.30;;;4.87;;
65831;SDS011;52593;42.648;23.332;2024-02-21T09:39:15;13.23;;;5.37;;
65831;SDS011;52593;42.648;23.332;2024-02-21T09:41:45;11.45;;;4.47;;
65831;SDS011;52593;42.648;23.332;2024-02-21T09:44:13;15.02;;;5.43;;
65831;SDS011;52593;42.648;23.332;2024-02-21T09:49:32;15.57;;;6.00;;
65831;SDS011;52593;42.648;23.332;2024-02-21T09:52:02;12.40;;;3.97;;
65831;SDS011;52593;42.648;23.332;2024-02-21T09:54:29;14.65;;;6.05;;
65831;SDS011;52593;42.648;23.332;2024-02-21T09:57:01;14.25;;;5.22;;
65831;SDS011;52593;42.648;23.332;2024-02-21T09:59:28;9.48;;;3.70;;
65831;SDS011;52593;42.648;23.332;2024-02-21T10:01:56;13.20;;;5.47;;
65831;SDS011;52593;42.648;23.332;2024-02-21T10:04:21;14.68;;;5.60;;
65831;SDS011;52593;42.648;23.332;2024-02-21T10:06:49;12.40;;;4.95;;
65831;SDS011;52593;42.648;23.332;2024-02-21T10:09:23;14.83;;;4.80;;
65831;SDS011;52593;42.648;23.332;2024-02-21T10:11:52;11.32;;;4.60;;
65831;SDS011;52593;42.648;23.332;2024-02-21T10:14:18;12.35;;;5.05;;
65831;SDS011;52593;42.648;23.332;2024-02-21T10:16:45;14.30;;;4.50;;
65831;SDS011;52593;42.648;23.332;2024-02-21T10:19:17;11.32;;;4.35;;
65831;SDS011;52593;42.648;23.332;2024-02-21T10:22:05;9.25;;;3.63;;
65831;SDS011;52593;42.648;23.332;2024-02-21T10:24:33;12.63;;;4.32;;
65831;SDS011;52593;42.648;23.332;2024-02-21T10:27:00;8.57;;;3.60;;
65831;SDS011;52593;42.648;23.332;2024-02-21T10:29:25;12.57;;;4.28;;
65831;SDS011;52593;42.648;23.332;2024-02-21T10:31:51;10.43;;;3.72;;
65831;SDS011;52593;42.648;23.332;2024-02-21T10:34:16;11.80;;;4.03;;
65831;SDS011;52593;42.648;23.332;2024-02-21T10:36:43;10.30;;;4.53;;
65831;SDS011;52593;42.648;23.332;2024-02-21T10:39:08;10.97;;;3.97;;
65831;SDS011;52593;42.648;23.332;2024-02-21T10:41:34;11.33;;;4.03;;
65831;SDS011;52593;42.648;23.332;2024-02-21T10:44:01;10.75;;;4.13;;
65831;SDS011;52593;42.648;23.332;2024-02-21T10:46:30;7.60;;;3.10;;
65831;SDS011;52593;42.648;23.332;2024-02-21T10:52:22;12.05;;;4.55;;
65831;SDS011;52593;42.648;23.332;2024-02-21T10:54:59;8.17;;;2.63;;
65831;SDS011;52593;42.648;23.332;2024-02-21T10:57:28;8.52;;;3.28;;
65831;SDS011;52593;42.648;23.332;2024-02-21T10:59:55;9.23;;;3.95;;
65831;SDS011;52593;42.648;23.332;2024-02-21T11:02:23;8.37;;;2.53;;
65831;SDS011;52593;42.648;23.332;2024-02-21T11:04:50;6.75;;;2.45;;
65831;SDS011;52593;42.648;23.332;2024-02-21T11:07:17;7.25;;;2.90;;
65831;SDS011;52593;42.648;23.332;2024-02-21T11:09:50;10.43;;;3.30;;
65831;SDS011;52593;42.648;23.332;2024-02-21T11:12:19;8.02;;;3.28;;
65831;SDS011;52593;42.648;23.332;2024-02-21T11:14:46;7.30;;;3.10;;
65831;SDS011;52593;42.648;23.332;2024-02-21T11:17:18;9.35;;;3.70;;
65831;SDS011;52593;42.648;23.332;2024-02-21T11:19:46;9.15;;;3.40;;
65831;SDS011;52593;42.648;23.332;2024-02-21T11:22:18;6.75;;;2.45;;
65831;SDS011;52593;42.648;23.332;2024-02-21T11:24:46;7.67;;;3.10;;
65831;SDS011;52593;42.648;23.332;2024-02-21T11:27:12;5.78;;;2.15;;
65831;SDS011;52593;42.648;23.332;2024-02-21T11:29:43;8.43;;;3.03;;
65831;SDS011;52593;42.648;23.332;2024-02-21T11:32:15;6.63;;;2.70;;
65831;SDS011;52593;42.648;23.332;2024-02-21T11:34:52;6.60;;;2.78;;
65831;SDS011;52593;42.648;23.332;2024-02-21T11:37:29;8.10;;;3.08;;
65831;SDS011;52593;42.648;23.332;2024-02-21T11:39:55;8.05;;;3.05;;
65831;SDS011;52593;42.648;23.332;2024-02-21T11:42:21;7.93;;;3.10;;
65831;SDS011;52593;42.648;23.332;2024-02-21T11:44:47;7.72;;;2.70;;
65831;SDS011;52593;42.648;23.332;2024-02-21T11:47:14;7.93;;;3.10;;
65831;SDS011;52593;42.648;23.332;2024-02-21T11:49:45;9.50;;;2.95;;
65831;SDS011;52593;42.648;23.332;2024-02-21T11:52:12;7.80;;;1.90;;
65831;SDS011;52593;42.648;23.332;2024-02-21T11:54:40;7.10;;;2.42;;
65831;SDS011;52593;42.648;23.332;2024-02-21T11:57:06;7.78;;;2.17;;
65831;SDS011;52593;42.648;23.332;2024-02-21T11:59:33;7.88;;;2.28;;
65831;SDS011;52593;42.648;23.332;2024-02-21T12:01:59;6.35;;;2.20;;
65831;SDS011;52593;42.648;23.332;2024-02-21T12:04:26;8.10;;;3.10;;
65831;SDS011;52593;42.648;23.332;2024-02-21T12:06:52;8.20;;;3.08;;
65831;SDS011;52593;42.648;23.332;2024-02-21T12:09:18;5.18;;;2.17;;
65831;SDS011;52593;42.648;23.332;2024-02-21T12:11:44;8.13;;;2.60;;
65831;SDS011;52593;42.648;23.332;2024-02-21T12:14:10;9.02;;;2.95;;
65831;SDS011;52593;42.648;23.332;2024-02-21T12:16:36;8.23;;;2.77;;
65831;SDS011;52593;42.648;23.332;2024-02-21T12:19:04;7.45;;;2.67;;
65831;SDS011;52593;42.648;23.332;2024-02-21T12:21:30;6.60;;;2.77;;
65831;SDS011;52593;42.648;23.332;2024-02-21T12:23:58;8.40;;;3.00;;
65831;SDS011;52593;42.648;23.332;2024-02-21T12:26:24;9.32;;;3.03;;
65831;SDS011;52593;42.648;23.332;2024-02-21T12:28:50;7.65;;;2.92;;
65831;SDS011;52593;42.648;23.332;2024-02-21T12:31:16;11.00;;;3.63;;
65831;SDS011;52593;42.648;23.332;2024-02-21T12:33:42;8.35;;;2.75;;
65831;SDS011;52593;42.648;23.332;2024-02-21T12:36:08;8.55;;;3.10;;
65831;SDS011;52593;42.648;23.332;2024-02-21T12:38:34;10.97;;;2.57;;
65831;SDS011;52593;42.648;23.332;2024-02-21T12:41:00;6.13;;;2.33;;
65831;SDS011;52593;42.648;23.332;2024-02-21T12:43:26;7.23;;;2.07;;
65831;SDS011;52593;42.648;23.332;2024-02-21T12:45:52;5.80;;;1.65;;
65831;SDS011;52593;42.648;23.332;2024-02-21T12:48:18;6.63;;;2.23;;
65831;SDS011;52593;42.648;23.332;2024-02-21T12:50:50;7.38;;;2.63;;
65831;SDS011;52593;42.648;23.332;2024-02-21T12:53:19;5.57;;;2.03;;
65831;SDS011;52593;42.648;23.332;2024-02-21T12:55:50;6.53;;;2.38;;
65831;SDS011;52593;42.648;23.332;2024-02-21T12:58:15;6.93;;;2.97;;
65831;SDS011;52593;42.648;23.332;2024-02-21T13:00:41;8.80;;;3.03;;
65831;SDS011;52593;42.648;23.332;2024-02-21T13:03:07;7.82;;;3.10;;
65831;SDS011;52593;42.648;23.332;2024-02-21T13:05:35;8.10;;;3.28;;
65831;SDS011;52593;42.648;23.332;2024-02-21T13:08:01;8.77;;;3.50;;
65831;SDS011;52593;42.648;23.332;2024-02-21T13:10:26;8.07;;;2.92;;
65831;SDS011;52593;42.648;23.332;2024-02-21T13:12:52;7.73;;;2.57;;
65831;SDS011;52593;42.648;23.332;2024-02-21T13:15:17;7.77;;;3.10;;
65831;SDS011;52593;42.648;23.332;2024-02-21T13:17:46;7.10;;;3.03;;
65831;SDS011;52593;42.648;23.332;2024-02-21T13:20:11;12.13;;;4.18;;
65831;SDS011;52593;42.648;23.332;2024-02-21T13:22:37;8.90;;;3.93;;
65831;SDS011;52593;42.648;23.332;2024-02-21T13:25:03;7.78;;;3.47;;
65831;SDS011;52593;42.648;23.332;2024-02-21T13:27:32;11.75;;;3.97;;
65831;SDS011;52593;42.648;23.332;2024-02-21T13:29:57;9.17;;;3.83;;
65831;SDS011;52593;42.648;23.332;2024-02-21T13:32:23;9.25;;;3.65;;
65831;SDS011;52593;42.648;23.332;2024-02-21T13:34:49;9.97;;;3.17;;
65831;SDS011;52593;42.648;23.332;2024-02-21T13:37:17;7.90;;;3.28;;
65831;SDS011;52593;42.648;23.332;2024-02-21T13:39:43;10.67;;;3.77;;
65831;SDS011;52593;42.648;23.332;2024-02-21T13:42:09;7.97;;;3.05;;
65831;SDS011;52593;42.648;23.332;2024-02-21T13:44:34;9.63;;;3.67;;
65831;SDS011;52593;42.648;23.332;2024-02-21T13:47:01;9.03;;;3.53;;
65831;SDS011;52593;42.648;23.332;2024-02-21T13:49:27;11.27;;;3.67;;
65831;SDS011;52593;42.648;23.332;2024-02-21T13:51:53;7.23;;;2.83;;
65831;SDS011;52593;42.648;23.332;2024-02-21T13:54:19;7.88;;;2.58;;
65831;SDS011;52593;42.648;23.332;2024-02-21T13:56:45;5.83;;;2.37;;
65831;SDS011;52593;42.648;23.332;2024-02-21T13:59:13;6.78;;;2.53;;
65831;SDS011;52593;42.648;23.332;2024-02-21T14:01:41;6.15;;;2.53;;
65831;SDS011;52593;42.648;23.332;2024-02-21T14:04:07;9.88;;;3.60;;
65831;SDS011;52593;42.648;23.332;2024-02-21T14:06:33;9.70;;;3.40;;
65831;SDS011;52593;42.648;23.332;2024-02-21T14:08:58;8.77;;;4.13;;
65831;SDS011;52593;42.648;23.332;2024-02-21T14:11:24;11.20;;;4.13;;
65831;SDS011;52593;42.648;23.332;2024-02-21T14:13:50;10.98;;;4.47;;
65831;SDS011;52593;42.648;23.332;2024-02-21T14:16:16;11.50;;;3.93;;
65831;SDS011;52593;42.648;23.332;2024-02-21T14:18:41;8.50;;;3.20;;
65831;SDS011;52593;42.648;23.332;2024-02-21T14:21:12;10.13;;;4.10;;
65831;SDS011;52593;42.648;23.332;2024-02-21T14:23:38;10.50;;;3.80;;
65831;SDS011;52593;42.648;23.332;2024-02-21T14:26:04;7.57;;;2.93;;
65831;SDS011;52593;42.648;23.332;2024-02-21T14:28:31;8.25;;;3.25;;
65831;SDS011;52593;42.648;23.332;2024-02-21T14:30:59;9.65;;;3.53;;